createdAt,value
2022-08-11T00:00:20.163Z,0.00
2022-08-11T00:05:20.105Z,0.00
2022-08-11T00:10:20.043Z,0.00
2022-08-11T00:15:19.962Z,0.00
2022-08-11T00:20:19.893Z,0.00
2022-08-11T00:25:19.884Z,0.00
2022-08-11T00:30:19.764Z,0.00
2022-08-11T00:35:52.533Z,0.00
2022-08-11T00:40:20.654Z,0.00
2022-08-11T00:45:19.568Z,0.00
2022-08-11T00:50:19.501Z,0.00
2022-08-11T00:55:19.491Z,0.00
2022-08-11T01:00:19.386Z,0.00
2022-08-11T01:05:19.313Z,0.00
2022-08-11T01:10:19.267Z,0.00
2022-08-11T01:15:19.222Z,0.00
2022-08-11T01:20:48.124Z,0.00
2022-08-11T01:25:20.247Z,0.00
2022-08-11T01:30:18.978Z,0.00
2022-08-11T01:35:18.930Z,0.00
2022-08-11T01:40:18.849Z,0.00
2022-08-11T01:45:18.777Z,0.00
2022-08-11T01:50:18.720Z,0.00
2022-08-11T01:55:18.660Z,0.00
2022-08-11T02:00:18.632Z,0.00
2022-08-11T02:05:18.529Z,0.00
2022-08-11T02:10:18.450Z,0.00
2022-08-11T02:15:18.391Z,0.00
2022-08-11T02:20:18.331Z,0.00
2022-08-11T02:25:18.260Z,0.00
2022-08-11T02:30:18.363Z,0.00
2022-08-11T02:35:18.121Z,0.00
2022-08-11T02:40:18.071Z,0.00
2022-08-11T02:45:17.992Z,0.00
2022-08-11T02:50:17.916Z,0.00
2022-08-11T02:55:44.478Z,0.00
2022-08-11T03:00:18.781Z,0.00
2022-08-11T03:05:17.758Z,0.00
2022-08-11T03:10:17.653Z,0.00
2022-08-11T03:15:17.592Z,0.00
2022-08-11T03:20:17.533Z,0.00
2022-08-11T03:25:17.453Z,0.00
2022-08-11T03:30:17.398Z,5.62
2022-08-11T03:35:21.327Z,11.25
2022-08-11T03:40:17.275Z,16.88
2022-08-11T03:45:17.251Z,22.50
2022-08-11T03:50:17.254Z,33.75
2022-08-11T03:55:17.112Z,50.62
2022-08-11T04:00:17.016Z,61.88
2022-08-11T04:05:16.977Z,90.00
2022-08-11T04:10:16.880Z,118.12
2022-08-11T04:15:16.820Z,157.50
2022-08-11T04:20:16.778Z,174.38
2022-08-11T04:25:16.684Z,202.50
2022-08-11T04:30:16.901Z,225.00
2022-08-11T04:35:16.554Z,258.75
2022-08-11T04:40:16.753Z,292.50
2022-08-11T04:45:16.400Z,360.00
2022-08-11T04:50:16.358Z,849.38
2022-08-11T04:55:16.279Z,2171.25
2022-08-11T05:00:16.204Z,2418.75
2022-08-11T05:05:16.150Z,2700.00
2022-08-11T05:10:16.070Z,2925.00
2022-08-11T05:15:16.033Z,3026.25
2022-08-11T05:20:15.953Z,2840.62
2022-08-11T05:26:44.735Z,3335.62
2022-08-11T05:30:16.822Z,3403.12
2022-08-11T05:35:28.309Z,3611.25
2022-08-11T05:40:16.687Z,3639.38
2022-08-11T05:45:15.905Z,3825.00
2022-08-11T05:50:15.562Z,4061.25
2022-08-11T05:55:15.530Z,4297.50
2022-08-11T06:00:15.471Z,4173.75
2022-08-11T06:05:15.431Z,4325.62
2022-08-11T06:10:15.349Z,4494.38
2022-08-11T06:15:15.275Z,4365.00
2022-08-11T06:20:15.234Z,4426.88
2022-08-11T06:25:15.180Z,4539.38
2022-08-11T06:30:15.105Z,4680.00
2022-08-11T06:35:15.042Z,4674.38
2022-08-11T06:40:14.971Z,4657.50
2022-08-11T06:45:14.940Z,4950.00
2022-08-11T06:50:14.854Z,4651.88
2022-08-11T06:55:55.763Z,4860.00
2022-08-11T07:00:15.736Z,5085.00
2022-08-11T07:05:14.685Z,4781.25
2022-08-11T07:10:14.620Z,4815.00
2022-08-11T07:15:14.558Z,4944.38
2022-08-11T07:20:14.499Z,4972.50
2022-08-11T07:25:14.502Z,4854.38
2022-08-11T07:30:14.464Z,4921.88
2022-08-11T07:35:14.348Z,4500.00
2022-08-11T07:40:14.273Z,4978.12
2022-08-11T07:45:14.226Z,4483.12
2022-08-11T07:50:14.171Z,5056.88
2022-08-11T07:55:14.148Z,4477.50
2022-08-11T08:00:14.037Z,4691.25
2022-08-11T08:05:13.989Z,4933.12
2022-08-11T08:10:15.945Z,5394.38
2022-08-11T08:15:13.871Z,2148.75
2022-08-11T08:20:13.811Z,2160.00
2022-08-11T08:25:13.767Z,2272.50
2022-08-11T08:30:13.704Z,1040.62
2022-08-11T08:35:13.635Z,2356.88
2022-08-11T08:40:13.587Z,2643.75
2022-08-11T08:45:13.518Z,2671.88
2022-08-11T08:50:16.941Z,2610.00
2022-08-11T08:55:13.399Z,2508.75
2022-08-11T09:00:14.466Z,2986.88
2022-08-11T09:05:13.277Z,3701.25
2022-08-11T09:10:13.226Z,973.12
2022-08-11T09:15:13.180Z,933.75
2022-08-11T09:20:13.085Z,883.12
2022-08-11T09:25:13.054Z,804.38
2022-08-11T09:30:12.969Z,877.50
2022-08-11T09:35:12.912Z,843.75
2022-08-11T09:40:12.853Z,776.25
2022-08-11T09:45:12.821Z,843.75
2022-08-11T09:50:12.717Z,916.88
2022-08-11T09:55:12.643Z,939.38
2022-08-11T10:00:14.092Z,961.88
2022-08-11T10:05:12.555Z,759.38
2022-08-11T10:10:12.461Z,804.38
2022-08-11T10:15:12.438Z,849.38
2022-08-11T10:20:12.350Z,916.88
2022-08-11T10:25:12.298Z,849.38
2022-08-11T10:30:12.200Z,810.00
2022-08-11T10:35:12.154Z,781.88
2022-08-11T10:40:12.093Z,736.88
2022-08-11T10:45:12.013Z,675.00
2022-08-11T10:50:11.955Z,720.00
2022-08-11T10:55:11.935Z,511.88
2022-08-11T11:00:11.816Z,596.25
2022-08-11T11:05:11.768Z,613.12
2022-08-11T11:10:11.965Z,545.62
2022-08-11T11:15:17.720Z,540.00
2022-08-11T11:20:34.524Z,416.25
2022-08-11T11:25:12.521Z,540.00
2022-08-11T11:30:11.445Z,495.00
2022-08-11T11:35:11.392Z,506.25
2022-08-11T11:40:11.325Z,528.75
2022-08-11T11:45:22.685Z,478.12
2022-08-11T11:50:12.541Z,506.25
2022-08-11T11:55:11.195Z,517.50
2022-08-11T12:00:11.041Z,540.00
2022-08-11T12:05:10.975Z,489.38
2022-08-11T12:10:10.947Z,478.12
2022-08-11T12:15:10.860Z,455.62
2022-08-11T12:20:31.583Z,472.50
2022-08-11T12:25:11.736Z,427.50
2022-08-11T12:30:10.687Z,511.88
2022-08-11T12:35:10.586Z,450.00
2022-08-11T12:40:16.310Z,427.50
2022-08-11T12:45:22.071Z,511.88
2022-08-11T12:50:22.770Z,438.75
2022-08-11T12:55:13.692Z,455.62
2022-08-11T13:00:10.416Z,410.62
2022-08-11T13:05:10.245Z,348.75
2022-08-11T13:10:11.431Z,360.00
2022-08-11T13:15:11.243Z,292.50
2022-08-11T13:20:10.184Z,393.75
2022-08-11T13:25:09.946Z,393.75
2022-08-11T13:30:10.867Z,376.88
2022-08-11T13:35:09.815Z,365.62
2022-08-11T13:40:09.742Z,360.00
2022-08-11T13:45:09.669Z,354.38
2022-08-11T13:50:09.610Z,348.75
2022-08-11T13:55:09.548Z,343.12
2022-08-11T14:00:09.472Z,343.12
2022-08-11T14:05:09.444Z,343.12
2022-08-11T14:10:09.354Z,337.50
2022-08-11T14:15:09.308Z,337.50
2022-08-11T14:20:37.804Z,331.88
2022-08-11T14:25:10.587Z,331.88
2022-08-11T14:30:09.073Z,326.25
2022-08-11T14:35:10.420Z,320.62
2022-08-11T14:40:08.962Z,320.62
2022-08-11T14:45:08.880Z,315.00
2022-08-11T14:50:11.168Z,315.00
2022-08-11T14:55:08.785Z,309.38
2022-08-11T15:00:08.674Z,309.38
2022-08-11T15:05:08.613Z,303.75
2022-08-11T15:10:15.763Z,303.75
2022-08-11T15:15:09.538Z,298.12
2022-08-11T15:20:08.468Z,298.12
2022-08-11T15:25:08.367Z,292.50
2022-08-11T15:30:08.480Z,286.88
2022-08-11T15:35:08.290Z,286.88
2022-08-11T15:40:08.212Z,286.88
2022-08-11T15:45:09.151Z,281.25
2022-08-11T15:50:11.855Z,275.62
2022-08-11T15:55:09.034Z,275.62
2022-08-11T16:00:07.971Z,270.00
2022-08-11T16:05:07.875Z,270.00
2022-08-11T16:10:09.407Z,264.38
2022-08-11T16:15:07.772Z,258.75
2022-08-11T16:20:07.683Z,253.12
2022-08-11T16:27:03.987Z,247.50
2022-08-11T16:30:08.560Z,241.88
2022-08-11T16:35:07.741Z,236.25
2022-08-11T16:40:07.459Z,230.62
2022-08-11T16:45:07.361Z,225.00
2022-08-11T16:50:07.310Z,219.38
2022-08-11T16:55:07.253Z,208.12
2022-08-11T17:00:07.234Z,202.50
2022-08-11T17:05:07.086Z,196.88
2022-08-11T17:10:31.838Z,191.25
2022-08-11T17:15:07.976Z,185.62
2022-08-11T17:20:39.956Z,174.38
2022-08-11T17:25:07.883Z,168.75
2022-08-11T17:30:07.369Z,157.50
2022-08-11T17:35:06.691Z,146.25
2022-08-11T17:40:06.810Z,135.00
2022-08-11T17:45:06.571Z,123.75
2022-08-11T17:50:16.791Z,112.50
2022-08-11T17:55:07.775Z,90.00
2022-08-11T18:00:06.375Z,78.75
2022-08-11T18:05:12.379Z,61.88
2022-08-11T18:10:07.249Z,50.62
2022-08-11T18:15:06.187Z,39.38
2022-08-11T18:20:06.117Z,33.75
2022-08-11T18:25:06.060Z,22.50
2022-08-11T18:30:06.002Z,16.88
2022-08-11T18:35:05.938Z,11.25
2022-08-11T18:40:05.882Z,5.62
2022-08-11T18:45:06.031Z,0.00
2022-08-11T18:50:05.893Z,0.00
2022-08-11T18:55:05.652Z,0.00
2022-08-11T19:00:05.586Z,0.00
2022-08-11T19:05:05.520Z,0.00
2022-08-11T19:10:05.457Z,0.00
2022-08-11T19:15:05.395Z,0.00
2022-08-11T19:20:05.388Z,0.00
2022-08-11T19:25:05.265Z,0.00
2022-08-11T19:30:13.051Z,0.00
2022-08-11T19:35:06.820Z,0.00
2022-08-11T19:40:05.062Z,0.00
2022-08-11T19:45:05.018Z,0.00
2022-08-11T19:50:05.041Z,0.00
2022-08-11T19:55:04.864Z,0.00
2022-08-11T20:00:04.818Z,0.00
2022-08-11T20:05:04.774Z,0.00
2022-08-11T20:10:06.575Z,0.00
2022-08-11T20:15:04.600Z,0.00
2022-08-11T20:20:04.570Z,0.00
2022-08-11T20:25:04.496Z,0.00
2022-08-11T20:30:04.405Z,0.00
2022-08-11T20:35:04.327Z,0.00
2022-08-11T20:40:04.326Z,0.00
2022-08-11T20:45:04.210Z,0.00
2022-08-11T20:50:04.153Z,0.00
2022-08-11T20:55:04.328Z,0.00
2022-08-11T21:00:05.026Z,0.00
2022-08-11T21:05:04.048Z,0.00
2022-08-11T21:10:09.896Z,0.00
2022-08-11T21:15:05.051Z,0.00
2022-08-11T21:20:08.006Z,0.00
2022-08-11T21:25:04.696Z,0.00
2022-08-11T21:30:03.654Z,0.00
2022-08-11T21:35:03.544Z,0.00
2022-08-11T21:40:03.580Z,0.00
2022-08-11T21:45:03.409Z,0.00
2022-08-11T21:50:03.354Z,0.00
2022-08-11T21:55:03.299Z,0.00
2022-08-11T22:00:03.511Z,0.00
2022-08-11T22:05:03.147Z,0.00
2022-08-11T22:10:34.254Z,0.00
2022-08-11T22:15:04.010Z,0.00
2022-08-11T22:20:02.946Z,0.00
2022-08-11T22:25:02.889Z,0.00
2022-08-11T22:30:03.812Z,0.00
2022-08-11T22:35:02.746Z,0.00
2022-08-11T22:40:03.331Z,0.00
2022-08-11T22:45:02.604Z,0.00
2022-08-11T22:50:02.544Z,0.00
2022-08-11T22:55:02.484Z,0.00
2022-08-11T23:00:02.482Z,0.00
2022-08-11T23:05:02.375Z,0.00
2022-08-11T23:10:02.295Z,0.00
2022-08-11T23:15:02.228Z,0.00
2022-08-11T23:20:13.268Z,0.00
2022-08-11T23:25:03.098Z,0.00
2022-08-11T23:30:02.038Z,0.00
2022-08-11T23:35:04.579Z,0.00
2022-08-11T23:40:02.917Z,0.00
2022-08-11T23:45:01.840Z,0.00
2022-08-11T23:50:01.785Z,0.00
2022-08-11T23:55:01.697Z,0.00
